sensor_id;sensor_type;location;lat;lon;timestamp;P1;durP1;ratioP1;P2;durP2;ratioP2
12356;SDS011;6243;51.244;6.774;2023-12-04T00:00:39;16.63;;;10.50;;
12356;SDS011;6243;51.244;6.774;2023-12-04T00:03:05;15.30;;;10.30;;
12356;SDS011;6243;51.244;6.774;2023-12-04T00:05:32;16.10;;;10.23;;
12356;SDS011;6243;51.244;6.774;2023-12-04T00:07:58;16.17;;;10.60;;
12356;SDS011;6243;51.244;6.774;2023-12-04T00:10:24;17.33;;;10.67;;
12356;SDS011;6243;51.244;6.774;2023-12-04T00:12:49;15.00;;;10.40;;
12356;SDS011;6243;51.244;6.774;2023-12-04T00:15:15;16.27;;;10.73;;
12356;SDS011;6243;51.244;6.774;2023-12-04T00:17:40;14.63;;;9.83;;
12356;SDS011;6243;51.244;6.774;2023-12-04T00:20:07;18.57;;;11.27;;
12356;SDS011;6243;51.244;6.774;2023-12-04T00:22:34;15.47;;;9.87;;
12356;SDS011;6243;51.244;6.774;2023-12-04T00:25:00;15.37;;;10.10;;
12356;SDS011;6243;51.244;6.774;2023-12-04T00:27:25;15.33;;;9.50;;
12356;SDS011;6243;51.244;6.774;2023-12-04T00:29:51;14.37;;;9.47;;
12356;SDS011;6243;51.244;6.774;2023-12-04T00:32:16;13.40;;;9.53;;
12356;SDS011;6243;51.244;6.774;2023-12-04T00:34:42;14.73;;;9.53;;
12356;SDS011;6243;51.244;6.774;2023-12-04T00:37:07;14.07;;;9.30;;
12356;SDS011;6243;51.244;6.774;2023-12-04T00:39:34;14.67;;;10.20;;
12356;SDS011;6243;51.244;6.774;2023-12-04T00:42:00;13.53;;;9.20;;
12356;SDS011;6243;51.244;6.774;2023-12-04T00:44:25;15.13;;;9.23;;
12356;SDS011;6243;51.244;6.774;2023-12-04T00:46:51;16.13;;;10.00;;
12356;SDS011;6243;51.244;6.774;2023-12-04T00:49:16;15.17;;;9.63;;
12356;SDS011;6243;51.244;6.774;2023-12-04T00:51:41;14.70;;;9.83;;
12356;SDS011;6243;51.244;6.774;2023-12-04T00:54:07;14.30;;;9.43;;
12356;SDS011;6243;51.244;6.774;2023-12-04T00:56:34;14.37;;;9.53;;
12356;SDS011;6243;51.244;6.774;2023-12-04T00:59:02;14.23;;;9.00;;
12356;SDS011;6243;51.244;6.774;2023-12-04T01:01:28;12.33;;;8.90;;
12356;SDS011;6243;51.244;6.774;2023-12-04T01:03:54;14.87;;;9.13;;
12356;SDS011;6243;51.244;6.774;2023-12-04T01:06:20;13.60;;;8.97;;
12356;SDS011;6243;51.244;6.774;2023-12-04T01:08:46;11.33;;;7.90;;
12356;SDS011;6243;51.244;6.774;2023-12-04T01:11:11;12.17;;;8.93;;
12356;SDS011;6243;51.244;6.774;2023-12-04T01:13:40;12.97;;;8.50;;
12356;SDS011;6243;51.244;6.774;2023-12-04T01:16:06;14.23;;;9.70;;
12356;SDS011;6243;51.244;6.774;2023-12-04T01:18:32;14.63;;;8.33;;
12356;SDS011;6243;51.244;6.774;2023-12-04T01:20:58;13.83;;;9.40;;
12356;SDS011;6243;51.244;6.774;2023-12-04T01:23:24;12.33;;;9.20;;
12356;SDS011;6243;51.244;6.774;2023-12-04T01:25:49;13.87;;;9.60;;
12356;SDS011;6243;51.244;6.774;2023-12-04T01:28:15;12.90;;;8.63;;
12356;SDS011;6243;51.244;6.774;2023-12-04T01:30:42;13.03;;;8.27;;
12356;SDS011;6243;51.244;6.774;2023-12-04T01:33:08;11.20;;;8.07;;
12356;SDS011;6243;51.244;6.774;2023-12-04T01:35:34;12.43;;;8.40;;
12356;SDS011;6243;51.244;6.774;2023-12-04T01:37:59;13.20;;;8.70;;
12356;SDS011;6243;51.244;6.774;2023-12-04T01:40:25;12.13;;;7.87;;
12356;SDS011;6243;51.244;6.774;2023-12-04T01:42:52;12.17;;;8.13;;
12356;SDS011;6243;51.244;6.774;2023-12-04T01:45:17;12.97;;;7.97;;
12356;SDS011;6243;51.244;6.774;2023-12-04T01:47:45;13.10;;;8.47;;
12356;SDS011;6243;51.244;6.774;2023-12-04T01:50:11;13.53;;;8.77;;
12356;SDS011;6243;51.244;6.774;2023-12-04T01:52:38;10.80;;;7.97;;
12356;SDS011;6243;51.244;6.774;2023-12-04T01:55:05;17.37;;;8.43;;
12356;SDS011;6243;51.244;6.774;2023-12-04T01:57:33;12.33;;;8.60;;
12356;SDS011;6243;51.244;6.774;2023-12-04T01:59:59;13.70;;;8.60;;
12356;SDS011;6243;51.244;6.774;2023-12-04T02:02:25;11.30;;;7.73;;
12356;SDS011;6243;51.244;6.774;2023-12-04T02:04:55;13.00;;;9.23;;
12356;SDS011;6243;51.244;6.774;2023-12-04T02:07:22;10.00;;;7.57;;
12356;SDS011;6243;51.244;6.774;2023-12-04T02:09:48;12.43;;;7.87;;
12356;SDS011;6243;51.244;6.774;2023-12-04T02:12:14;11.10;;;7.87;;
12356;SDS011;6243;51.244;6.774;2023-12-04T02:14:40;10.57;;;7.40;;
12356;SDS011;6243;51.244;6.774;2023-12-04T02:17:06;12.07;;;7.87;;
12356;SDS011;6243;51.244;6.774;2023-12-04T02:19:33;10.93;;;7.27;;
12356;SDS011;6243;51.244;6.774;2023-12-04T02:22:00;11.50;;;8.27;;
12356;SDS011;6243;51.244;6.774;2023-12-04T02:24:27;11.23;;;7.80;;
12356;SDS011;6243;51.244;6.774;2023-12-04T02:26:54;11.50;;;7.70;;
12356;SDS011;6243;51.244;6.774;2023-12-04T02:29:26;10.40;;;7.90;;
12356;SDS011;6243;51.244;6.774;2023-12-04T02:31:56;12.37;;;7.83;;
12356;SDS011;6243;51.244;6.774;2023-12-04T02:34:23;11.27;;;7.80;;
12356;SDS011;6243;51.244;6.774;2023-12-04T02:36:49;10.80;;;7.93;;
12356;SDS011;6243;51.244;6.774;2023-12-04T02:39:16;9.63;;;7.13;;
12356;SDS011;6243;51.244;6.774;2023-12-04T02:41:43;11.07;;;7.60;;
12356;SDS011;6243;51.244;6.774;2023-12-04T02:44:09;9.93;;;7.40;;
12356;SDS011;6243;51.244;6.774;2023-12-04T02:46:35;9.93;;;7.40;;
12356;SDS011;6243;51.244;6.774;2023-12-04T02:49:00;11.40;;;7.30;;
12356;SDS011;6243;51.244;6.774;2023-12-04T02:51:26;9.90;;;7.27;;
12356;SDS011;6243;51.244;6.774;2023-12-04T02:53:51;13.00;;;7.50;;
12356;SDS011;6243;51.244;6.774;2023-12-04T02:56:17;10.17;;;7.30;;
12356;SDS011;6243;51.244;6.774;2023-12-04T02:58:44;11.67;;;8.10;;
12356;SDS011;6243;51.244;6.774;2023-12-04T03:01:10;10.90;;;7.73;;
12356;SDS011;6243;51.244;6.774;2023-12-04T03:03:36;11.03;;;7.90;;
12356;SDS011;6243;51.244;6.774;2023-12-04T03:06:01;11.63;;;7.40;;
12356;SDS011;6243;51.244;6.774;2023-12-04T03:08:27;10.27;;;7.30;;
12356;SDS011;6243;51.244;6.774;2023-12-04T03:10:52;11.13;;;7.40;;
12356;SDS011;6243;51.244;6.774;2023-12-04T03:13:18;13.57;;;7.90;;
12356;SDS011;6243;51.244;6.774;2023-12-04T03:15:45;11.40;;;7.27;;
12356;SDS011;6243;51.244;6.774;2023-12-04T03:18:11;9.77;;;7.37;;
12356;SDS011;6243;51.244;6.774;2023-12-04T03:20:36;11.47;;;8.33;;
12356;SDS011;6243;51.244;6.774;2023-12-04T03:23:02;10.37;;;7.70;;
12356;SDS011;6243;51.244;6.774;2023-12-04T03:25:28;13.73;;;7.77;;
12356;SDS011;6243;51.244;6.774;2023-12-04T03:27:53;10.37;;;7.50;;
12356;SDS011;6243;51.244;6.774;2023-12-04T03:30:19;11.70;;;7.53;;
12356;SDS011;6243;51.244;6.774;2023-12-04T03:32:46;10.60;;;7.50;;
12356;SDS011;6243;51.244;6.774;2023-12-04T03:35:12;11.00;;;7.13;;
12356;SDS011;6243;51.244;6.774;2023-12-04T03:37:37;11.90;;;7.80;;
12356;SDS011;6243;51.244;6.774;2023-12-04T03:40:04;9.70;;;6.90;;
12356;SDS011;6243;51.244;6.774;2023-12-04T03:42:30;10.00;;;7.10;;
12356;SDS011;6243;51.244;6.774;2023-12-04T03:44:56;10.27;;;7.20;;
12356;SDS011;6243;51.244;6.774;2023-12-04T03:47:21;11.33;;;6.97;;
12356;SDS011;6243;51.244;6.774;2023-12-04T03:49:48;11.27;;;7.27;;
12356;SDS011;6243;51.244;6.774;2023-12-04T03:52:14;9.10;;;6.73;;
12356;SDS011;6243;51.244;6.774;2023-12-04T03:54:39;11.63;;;7.57;;
12356;SDS011;6243;51.244;6.774;2023-12-04T03:57:05;9.93;;;6.77;;
12356;SDS011;6243;51.244;6.774;2023-12-04T03:59:31;9.97;;;7.33;;
12356;SDS011;6243;51.244;6.774;2023-12-04T04:01:56;10.73;;;7.27;;
12356;SDS011;6243;51.244;6.774;2023-12-04T04:04:22;10.37;;;6.57;;
12356;SDS011;6243;51.244;6.774;2023-12-04T04:06:49;10.43;;;6.63;;
12356;SDS011;6243;51.244;6.774;2023-12-04T04:09:14;10.90;;;6.87;;
12356;SDS011;6243;51.244;6.774;2023-12-04T04:11:40;9.47;;;6.63;;
12356;SDS011;6243;51.244;6.774;2023-12-04T04:14:05;8.37;;;6.77;;
12356;SDS011;6243;51.244;6.774;2023-12-04T04:16:31;9.90;;;7.07;;
12356;SDS011;6243;51.244;6.774;2023-12-04T04:18:56;8.10;;;6.53;;
12356;SDS011;6243;51.244;6.774;2023-12-04T04:21:22;10.77;;;6.80;;
12356;SDS011;6243;51.244;6.774;2023-12-04T04:23:49;9.47;;;6.07;;
12356;SDS011;6243;51.244;6.774;2023-12-04T04:26:14;8.03;;;6.17;;
12356;SDS011;6243;51.244;6.774;2023-12-04T04:28:40;9.27;;;6.37;;
12356;SDS011;6243;51.244;6.774;2023-12-04T04:31:06;9.23;;;6.37;;
12356;SDS011;6243;51.244;6.774;2023-12-04T04:33:31;9.63;;;6.60;;
12356;SDS011;6243;51.244;6.774;2023-12-04T04:35:57;8.07;;;6.17;;
12356;SDS011;6243;51.244;6.774;2023-12-04T04:38:22;8.87;;;6.70;;
12356;SDS011;6243;51.244;6.774;2023-12-04T04:40:49;9.53;;;6.43;;
12356;SDS011;6243;51.244;6.774;2023-12-04T04:43:15;9.77;;;6.57;;
12356;SDS011;6243;51.244;6.774;2023-12-04T04:45:40;11.63;;;6.83;;
12356;SDS011;6243;51.244;6.774;2023-12-04T04:48:06;8.90;;;5.83;;
12356;SDS011;6243;51.244;6.774;2023-12-04T04:50:31;8.80;;;6.43;;
12356;SDS011;6243;51.244;6.774;2023-12-04T04:52:57;9.63;;;6.70;;
12356;SDS011;6243;51.244;6.774;2023-12-04T04:55:22;10.50;;;6.23;;
12356;SDS011;6243;51.244;6.774;2023-12-04T04:57:49;12.23;;;6.40;;
12356;SDS011;6243;51.244;6.774;2023-12-04T05:00:15;9.10;;;6.37;;
12356;SDS011;6243;51.244;6.774;2023-12-04T05:02:41;8.47;;;6.17;;
12356;SDS011;6243;51.244;6.774;2023-12-04T05:05:06;9.20;;;6.33;;
12356;SDS011;6243;51.244;6.774;2023-12-04T05:07:32;9.27;;;6.73;;
12356;SDS011;6243;51.244;6.774;2023-12-04T05:09:58;10.60;;;6.57;;
12356;SDS011;6243;51.244;6.774;2023-12-04T05:12:23;9.83;;;7.23;;
12356;SDS011;6243;51.244;6.774;2023-12-04T05:14:50;11.07;;;7.27;;
12356;SDS011;6243;51.244;6.774;2023-12-04T05:17:16;9.47;;;6.60;;
12356;SDS011;6243;51.244;6.774;2023-12-04T05:19:41;9.50;;;7.10;;
12356;SDS011;6243;51.244;6.774;2023-12-04T05:22:07;9.30;;;6.53;;
12356;SDS011;6243;51.244;6.774;2023-12-04T05:24:33;9.30;;;7.40;;
12356;SDS011;6243;51.244;6.774;2023-12-04T05:26:59;11.87;;;7.23;;
12356;SDS011;6243;51.244;6.774;2023-12-04T05:29:24;12.43;;;8.20;;
12356;SDS011;6243;51.244;6.774;2023-12-04T05:31:51;8.80;;;7.07;;
12356;SDS011;6243;51.244;6.774;2023-12-04T05:34:16;9.30;;;7.17;;
12356;SDS011;6243;51.244;6.774;2023-12-04T05:36:42;11.50;;;7.50;;
12356;SDS011;6243;51.244;6.774;2023-12-04T05:39:07;10.20;;;7.40;;
12356;SDS011;6243;51.244;6.774;2023-12-04T05:41:33;9.30;;;6.90;;
12356;SDS011;6243;51.244;6.774;2023-12-04T05:43:58;10.73;;;7.97;;
12356;SDS011;6243;51.244;6.774;2023-12-04T05:46:24;11.10;;;7.70;;
12356;SDS011;6243;51.244;6.774;2023-12-04T05:48:51;10.83;;;6.97;;
12356;SDS011;6243;51.244;6.774;2023-12-04T05:51:16;10.30;;;7.60;;
12356;SDS011;6243;51.244;6.774;2023-12-04T05:53:42;11.83;;;7.83;;
12356;SDS011;6243;51.244;6.774;2023-12-04T05:56:08;11.50;;;7.70;;
12356;SDS011;6243;51.244;6.774;2023-12-04T05:58:34;11.73;;;8.33;;
12356;SDS011;6243;51.244;6.774;2023-12-04T06:01:00;11.57;;;7.93;;
12356;SDS011;6243;51.244;6.774;2023-12-04T06:03:26;12.13;;;8.20;;
12356;SDS011;6243;51.244;6.774;2023-12-04T06:05:52;11.77;;;7.90;;
12356;SDS011;6243;51.244;6.774;2023-12-04T06:08:18;13.53;;;7.90;;
12356;SDS011;6243;51.244;6.774;2023-12-04T06:10:43;11.33;;;8.40;;
12356;SDS011;6243;51.244;6.774;2023-12-04T06:13:09;10.90;;;7.43;;
12356;SDS011;6243;51.244;6.774;2023-12-04T06:15:34;10.43;;;7.83;;
12356;SDS011;6243;51.244;6.774;2023-12-04T06:18:00;12.07;;;8.50;;
12356;SDS011;6243;51.244;6.774;2023-12-04T06:20:25;12.20;;;8.53;;
12356;SDS011;6243;51.244;6.774;2023-12-04T06:22:52;10.20;;;7.77;;
12356;SDS011;6243;51.244;6.774;2023-12-04T06:25:18;10.17;;;8.07;;
12356;SDS011;6243;51.244;6.774;2023-12-04T06:27:45;13.73;;;8.97;;
12356;SDS011;6243;51.244;6.774;2023-12-04T06:30:11;12.63;;;8.33;;
12356;SDS011;6243;51.244;6.774;2023-12-04T06:32:37;14.03;;;8.90;;
12356;SDS011;6243;51.244;6.774;2023-12-04T06:35:03;12.63;;;8.70;;
12356;SDS011;6243;51.244;6.774;2023-12-04T06:37:29;11.70;;;8.60;;
12356;SDS011;6243;51.244;6.774;2023-12-04T06:39:57;10.90;;;8.30;;
12356;SDS011;6243;51.244;6.774;2023-12-04T06:42:25;13.03;;;8.90;;
12356;SDS011;6243;51.244;6.774;2023-12-04T06:44:51;12.73;;;8.73;;
12356;SDS011;6243;51.244;6.774;2023-12-04T06:47:17;12.23;;;8.60;;
12356;SDS011;6243;51.244;6.774;2023-12-04T06:49:45;14.27;;;9.10;;
12356;SDS011;6243;51.244;6.774;2023-12-04T06:52:11;13.40;;;9.00;;
12356;SDS011;6243;51.244;6.774;2023-12-04T06:54:36;14.17;;;8.83;;
12356;SDS011;6243;51.244;6.774;2023-12-04T06:57:04;13.97;;;9.10;;
12356;SDS011;6243;51.244;6.774;2023-12-04T06:59:29;11.93;;;7.90;;
12356;SDS011;6243;51.244;6.774;2023-12-04T07:01:55;12.60;;;8.63;;
12356;SDS011;6243;51.244;6.774;2023-12-04T07:04:20;12.33;;;8.63;;
12356;SDS011;6243;51.244;6.774;2023-12-04T07:06:46;12.50;;;9.23;;
12356;SDS011;6243;51.244;6.774;2023-12-04T07:09:12;11.23;;;8.47;;
12356;SDS011;6243;51.244;6.774;2023-12-04T07:11:38;12.63;;;9.00;;
12356;SDS011;6243;51.244;6.774;2023-12-04T07:14:05;10.43;;;8.10;;
12356;SDS011;6243;51.244;6.774;2023-12-04T07:16:30;11.90;;;8.67;;
12356;SDS011;6243;51.244;6.774;2023-12-04T07:18:55;13.40;;;9.00;;
12356;SDS011;6243;51.244;6.774;2023-12-04T07:21:21;12.20;;;8.23;;
12356;SDS011;6243;51.244;6.774;2023-12-04T07:23:46;12.23;;;8.20;;
12356;SDS011;6243;51.244;6.774;2023-12-04T07:26:12;12.57;;;8.73;;
12356;SDS011;6243;51.244;6.774;2023-12-04T07:28:38;12.00;;;8.53;;
12356;SDS011;6243;51.244;6.774;2023-12-04T07:31:05;12.60;;;8.73;;
12356;SDS011;6243;51.244;6.774;2023-12-04T07:33:31;12.60;;;8.13;;
12356;SDS011;6243;51.244;6.774;2023-12-04T07:35:56;13.10;;;8.40;;
12356;SDS011;6243;51.244;6.774;2023-12-04T07:38:22;12.47;;;8.40;;
12356;SDS011;6243;51.244;6.774;2023-12-04T07:40:47;11.17;;;8.17;;
12356;SDS011;6243;51.244;6.774;2023-12-04T07:43:13;9.90;;;7.70;;
12356;SDS011;6243;51.244;6.774;2023-12-04T07:45:38;10.17;;;7.43;;
12356;SDS011;6243;51.244;6.774;2023-12-04T07:48:05;11.40;;;7.30;;
12356;SDS011;6243;51.244;6.774;2023-12-04T07:50:31;11.83;;;7.43;;
12356;SDS011;6243;51.244;6.774;2023-12-04T07:52:57;10.53;;;7.73;;
12356;SDS011;6243;51.244;6.774;2023-12-04T07:55:22;11.73;;;8.13;;
12356;SDS011;6243;51.244;6.774;2023-12-04T07:57:48;10.87;;;7.53;;
12356;SDS011;6243;51.244;6.774;2023-12-04T08:00:13;9.30;;;7.07;;
12356;SDS011;6243;51.244;6.774;2023-12-04T08:02:39;9.20;;;6.97;;
12356;SDS011;6243;51.244;6.774;2023-12-04T08:05:07;9.13;;;6.50;;
12356;SDS011;6243;51.244;6.774;2023-12-04T08:07:32;11.23;;;7.27;;
12356;SDS011;6243;51.244;6.774;2023-12-04T08:09:58;10.70;;;7.33;;
12356;SDS011;6243;51.244;6.774;2023-12-04T08:12:23;11.00;;;7.00;;
12356;SDS011;6243;51.244;6.774;2023-12-04T08:14:49;8.93;;;6.90;;
12356;SDS011;6243;51.244;6.774;2023-12-04T08:17:14;11.13;;;7.80;;
12356;SDS011;6243;51.244;6.774;2023-12-04T08:19:40;11.20;;;6.63;;
12356;SDS011;6243;51.244;6.774;2023-12-04T08:22:07;9.53;;;6.90;;
12356;SDS011;6243;51.244;6.774;2023-12-04T08:24:32;8.97;;;7.20;;
12356;SDS011;6243;51.244;6.774;2023-12-04T08:26:58;10.27;;;7.00;;
12356;SDS011;6243;51.244;6.774;2023-12-04T08:29:23;8.50;;;6.50;;
12356;SDS011;6243;51.244;6.774;2023-12-04T08:31:49;9.17;;;7.00;;
12356;SDS011;6243;51.244;6.774;2023-12-04T08:34:14;9.30;;;7.00;;
12356;SDS011;6243;51.244;6.774;2023-12-04T08:36:40;9.57;;;6.17;;
12356;SDS011;6243;51.244;6.774;2023-12-04T08:39:07;7.23;;;5.80;;
12356;SDS011;6243;51.244;6.774;2023-12-04T08:41:32;9.53;;;6.60;;
12356;SDS011;6243;51.244;6.774;2023-12-04T08:43:58;8.53;;;6.07;;
12356;SDS011;6243;51.244;6.774;2023-12-04T08:46:24;9.53;;;6.27;;
12356;SDS011;6243;51.244;6.774;2023-12-04T08:48:49;9.97;;;6.03;;
12356;SDS011;6243;51.244;6.774;2023-12-04T08:51:15;8.47;;;6.33;;
12356;SDS011;6243;51.244;6.774;2023-12-04T08:53:41;8.07;;;5.80;;
12356;SDS011;6243;51.244;6.774;2023-12-04T08:56:09;7.87;;;5.77;;
12356;SDS011;6243;51.244;6.774;2023-12-04T08:58:35;9.20;;;6.70;;
12356;SDS011;6243;51.244;6.774;2023-12-04T09:01:01;11.23;;;6.37;;
12356;SDS011;6243;51.244;6.774;2023-12-04T09:03:27;10.00;;;5.90;;
12356;SDS011;6243;51.244;6.774;2023-12-04T09:05:52;7.53;;;5.57;;
12356;SDS011;6243;51.244;6.774;2023-12-04T09:08:18;10.27;;;6.07;;
12356;SDS011;6243;51.244;6.774;2023-12-04T09:10:43;7.73;;;6.00;;
12356;SDS011;6243;51.244;6.774;2023-12-04T09:13:10;8.93;;;6.10;;
12356;SDS011;6243;51.244;6.774;2023-12-04T09:15:36;8.10;;;5.50;;
12356;SDS011;6243;51.244;6.774;2023-12-04T09:18:01;8.40;;;5.87;;
12356;SDS011;6243;51.244;6.774;2023-12-04T09:20:27;10.07;;;7.10;;
12356;SDS011;6243;51.244;6.774;2023-12-04T09:22:53;10.07;;;7.70;;
12356;SDS011;6243;51.244;6.774;2023-12-04T09:25:18;10.47;;;6.83;;
12356;SDS011;6243;51.244;6.774;2023-12-04T09:27:45;17.53;;;10.00;;
12356;SDS011;6243;51.244;6.774;2023-12-04T09:30:12;9.47;;;6.77;;
12356;SDS011;6243;51.244;6.774;2023-12-04T09:32:38;9.10;;;6.37;;
12356;SDS011;6243;51.244;6.774;2023-12-04T09:35:04;8.50;;;6.47;;
12356;SDS011;6243;51.244;6.774;2023-12-04T09:37:30;10.07;;;6.13;;
12356;SDS011;6243;51.244;6.774;2023-12-04T09:39:55;10.03;;;5.93;;
12356;SDS011;6243;51.244;6.774;2023-12-04T09:42:21;8.13;;;5.83;;
12356;SDS011;6243;51.244;6.774;2023-12-04T09:44:46;9.33;;;6.07;;
12356;SDS011;6243;51.244;6.774;2023-12-04T09:47:14;7.27;;;5.67;;
12356;SDS011;6243;51.244;6.774;2023-12-04T09:49:42;7.63;;;5.70;;
12356;SDS011;6243;51.244;6.774;2023-12-04T09:52:09;7.30;;;5.37;;
12356;SDS011;6243;51.244;6.774;2023-12-04T09:54:35;8.23;;;5.60;;
12356;SDS011;6243;51.244;6.774;2023-12-04T09:57:03;7.47;;;5.47;;
12356;SDS011;6243;51.244;6.774;2023-12-04T09:59:29;7.43;;;5.60;;
12356;SDS011;6243;51.244;6.774;2023-12-04T10:01:55;7.77;;;5.90;;
12356;SDS011;6243;51.244;6.774;2023-12-04T10:04:23;8.40;;;6.27;;
12356;SDS011;6243;51.244;6.774;2023-12-04T10:06:50;9.00;;;6.00;;
12356;SDS011;6243;51.244;6.774;2023-12-04T10:09:17;8.33;;;6.23;;
12356;SDS011;6243;51.244;6.774;2023-12-04T10:11:42;7.57;;;5.63;;
12356;SDS011;6243;51.244;6.774;2023-12-04T10:14:14;8.13;;;5.90;;
12356;SDS011;6243;51.244;6.774;2023-12-04T10:16:40;7.87;;;5.90;;
12356;SDS011;6243;51.244;6.774;2023-12-04T10:19:13;10.90;;;5.40;;
12356;SDS011;6243;51.244;6.774;2023-12-04T10:21:41;7.53;;;5.83;;
12356;SDS011;6243;51.244;6.774;2023-12-04T10:24:07;10.17;;;6.73;;
12356;SDS011;6243;51.244;6.774;2023-12-04T10:26:32;7.30;;;5.33;;
12356;SDS011;6243;51.244;6.774;2023-12-04T10:28:58;9.33;;;6.67;;
12356;SDS011;6243;51.244;6.774;2023-12-04T10:31:24;7.47;;;5.83;;
12356;SDS011;6243;51.244;6.774;2023-12-04T10:33:50;7.90;;;6.40;;
12356;SDS011;6243;51.244;6.774;2023-12-04T10:36:16;7.97;;;5.90;;
12356;SDS011;6243;51.244;6.774;2023-12-04T10:38:43;8.70;;;5.97;;
12356;SDS011;6243;51.244;6.774;2023-12-04T10:41:11;7.43;;;5.70;;
12356;SDS011;6243;51.244;6.774;2023-12-04T10:43:37;8.30;;;5.73;;
12356;SDS011;6243;51.244;6.774;2023-12-04T10:46:12;10.77;;;5.57;;
12356;SDS011;6243;51.244;6.774;2023-12-04T10:48:39;6.43;;;5.20;;
12356;SDS011;6243;51.244;6.774;2023-12-04T10:51:05;7.23;;;5.37;;
12356;SDS011;6243;51.244;6.774;2023-12-04T10:53:30;8.33;;;5.80;;
12356;SDS011;6243;51.244;6.774;2023-12-04T10:55:57;7.97;;;5.90;;
12356;SDS011;6243;51.244;6.774;2023-12-04T10:58:27;8.47;;;6.37;;
12356;SDS011;6243;51.244;6.774;2023-12-04T11:00:54;8.00;;;6.13;;
12356;SDS011;6243;51.244;6.774;2023-12-04T11:03:25;8.17;;;5.90;;
12356;SDS011;6243;51.244;6.774;2023-12-04T11:05:59;9.37;;;6.43;;
12356;SDS011;6243;51.244;6.774;2023-12-04T11:08:26;9.77;;;6.60;;
12356;SDS011;6243;51.244;6.774;2023-12-04T11:10:54;9.33;;;6.10;;
12356;SDS011;6243;51.244;6.774;2023-12-04T11:13:26;7.87;;;5.57;;
12356;SDS011;6243;51.244;6.774;2023-12-04T11:15:53;8.50;;;6.50;;
12356;SDS011;6243;51.244;6.774;2023-12-04T11:18:24;8.90;;;6.90;;
12356;SDS011;6243;51.244;6.774;2023-12-04T11:20:52;9.67;;;6.60;;
12356;SDS011;6243;51.244;6.774;2023-12-04T11:23:21;9.17;;;6.47;;
12356;SDS011;6243;51.244;6.774;2023-12-04T11:25:47;8.87;;;6.60;;
12356;SDS011;6243;51.244;6.774;2023-12-04T11:28:14;8.67;;;6.50;;
12356;SDS011;6243;51.244;6.774;2023-12-04T11:30:41;10.83;;;7.47;;
12356;SDS011;6243;51.244;6.774;2023-12-04T11:33:06;11.27;;;7.57;;
12356;SDS011;6243;51.244;6.774;2023-12-04T11:35:33;9.43;;;6.90;;
12356;SDS011;6243;51.244;6.774;2023-12-04T11:37:59;10.43;;;7.23;;
12356;SDS011;6243;51.244;6.774;2023-12-04T11:40:25;11.70;;;7.23;;
12356;SDS011;6243;51.244;6.774;2023-12-04T11:42:50;10.77;;;7.63;;
12356;SDS011;6243;51.244;6.774;2023-12-04T11:45:21;10.77;;;7.30;;
12356;SDS011;6243;51.244;6.774;2023-12-04T11:47:50;9.23;;;7.30;;
12356;SDS011;6243;51.244;6.774;2023-12-04T11:50:18;9.33;;;7.53;;
12356;SDS011;6243;51.244;6.774;2023-12-04T11:52:44;11.10;;;7.27;;
12356;SDS011;6243;51.244;6.774;2023-12-04T11:55:10;11.47;;;7.60;;
12356;SDS011;6243;51.244;6.774;2023-12-04T11:57:35;11.47;;;7.50;;
12356;SDS011;6243;51.244;6.774;2023-12-04T12:00:12;11.40;;;7.93;;
12356;SDS011;6243;51.244;6.774;2023-12-04T12:02:48;9.70;;;7.37;;
12356;SDS011;6243;51.244;6.774;2023-12-04T12:05:25;10.60;;;7.57;;
12356;SDS011;6243;51.244;6.774;2023-12-04T12:07:50;12.17;;;8.03;;
12356;SDS011;6243;51.244;6.774;2023-12-04T12:10:16;12.40;;;8.60;;
12356;SDS011;6243;51.244;6.774;2023-12-04T12:12:42;11.70;;;8.13;;
12356;SDS011;6243;51.244;6.774;2023-12-04T12:15:08;11.23;;;8.23;;
12356;SDS011;6243;51.244;6.774;2023-12-04T12:17:34;10.90;;;8.13;;
12356;SDS011;6243;51.244;6.774;2023-12-04T12:20:01;11.63;;;7.20;;
12356;SDS011;6243;51.244;6.774;2023-12-04T12:22:26;12.67;;;8.80;;
12356;SDS011;6243;51.244;6.774;2023-12-04T12:24:52;11.40;;;8.37;;
12356;SDS011;6243;51.244;6.774;2023-12-04T12:27:17;11.90;;;7.77;;
12356;SDS011;6243;51.244;6.774;2023-12-04T12:29:43;11.80;;;7.87;;
12356;SDS011;6243;51.244;6.774;2023-12-04T12:32:08;11.93;;;7.87;;
12356;SDS011;6243;51.244;6.774;2023-12-04T12:34:34;11.77;;;9.07;;
12356;SDS011;6243;51.244;6.774;2023-12-04T12:37:01;12.67;;;7.93;;
12356;SDS011;6243;51.244;6.774;2023-12-04T12:39:27;12.57;;;8.53;;
12356;SDS011;6243;51.244;6.774;2023-12-04T12:41:53;12.33;;;8.40;;
12356;SDS011;6243;51.244;6.774;2023-12-04T12:44:18;10.90;;;7.80;;
12356;SDS011;6243;51.244;6.774;2023-12-04T12:46:46;10.23;;;7.80;;
12356;SDS011;6243;51.244;6.774;2023-12-04T12:49:13;11.17;;;7.83;;
12356;SDS011;6243;51.244;6.774;2023-12-04T12:51:39;11.87;;;8.03;;
12356;SDS011;6243;51.244;6.774;2023-12-04T12:54:07;11.03;;;7.97;;
12356;SDS011;6243;51.244;6.774;2023-12-04T12:56:33;12.07;;;8.33;;
12356;SDS011;6243;51.244;6.774;2023-12-04T12:58:59;12.57;;;8.40;;
12356;SDS011;6243;51.244;6.774;2023-12-04T13:01:25;12.33;;;7.80;;
12356;SDS011;6243;51.244;6.774;2023-12-04T13:03:56;11.43;;;7.90;;
12356;SDS011;6243;51.244;6.774;2023-12-04T13:06:21;11.67;;;8.67;;
12356;SDS011;6243;51.244;6.774;2023-12-04T13:08:47;11.23;;;8.13;;
12356;SDS011;6243;51.244;6.774;2023-12-04T13:11:14;10.47;;;7.67;;
12356;SDS011;6243;51.244;6.774;2023-12-04T13:13:40;13.63;;;8.63;;
12356;SDS011;6243;51.244;6.774;2023-12-04T13:16:05;12.67;;;8.40;;
12356;SDS011;6243;51.244;6.774;2023-12-04T13:18:31;12.27;;;7.93;;
12356;SDS011;6243;51.244;6.774;2023-12-04T13:20:57;11.00;;;8.10;;
12356;SDS011;6243;51.244;6.774;2023-12-04T13:23:23;11.00;;;7.90;;
12356;SDS011;6243;51.244;6.774;2023-12-04T13:25:48;11.73;;;8.13;;
12356;SDS011;6243;51.244;6.774;2023-12-04T13:28:15;11.10;;;7.43;;
12356;SDS011;6243;51.244;6.774;2023-12-04T13:30:40;12.50;;;8.07;;
12356;SDS011;6243;51.244;6.774;2023-12-04T13:33:06;10.67;;;7.30;;
12356;SDS011;6243;51.244;6.774;2023-12-04T13:35:32;12.03;;;7.97;;
12356;SDS011;6243;51.244;6.774;2023-12-04T13:37:57;11.57;;;7.10;;
12356;SDS011;6243;51.244;6.774;2023-12-04T13:40:23;10.97;;;7.47;;
12356;SDS011;6243;51.244;6.774;2023-12-04T13:42:48;9.83;;;6.97;;
12356;SDS011;6243;51.244;6.774;2023-12-04T13:45:15;11.43;;;7.60;;
12356;SDS011;6243;51.244;6.774;2023-12-04T13:47:41;9.87;;;7.57;;
12356;SDS011;6243;51.244;6.774;2023-12-04T13:50:08;11.87;;;7.10;;
12356;SDS011;6243;51.244;6.774;2023-12-04T13:52:33;9.50;;;7.33;;
12356;SDS011;6243;51.244;6.774;2023-12-04T13:54:59;12.00;;;7.57;;
12356;SDS011;6243;51.244;6.774;2023-12-04T13:57:25;11.33;;;7.20;;
12356;SDS011;6243;51.244;6.774;2023-12-04T13:59:50;11.83;;;7.93;;
12356;SDS011;6243;51.244;6.774;2023-12-04T14:02:17;10.40;;;6.90;;
12356;SDS011;6243;51.244;6.774;2023-12-04T14:04:42;9.60;;;7.30;;
12356;SDS011;6243;51.244;6.774;2023-12-04T14:07:08;9.20;;;6.60;;
12356;SDS011;6243;51.244;6.774;2023-12-04T14:09:33;11.93;;;6.97;;
12356;SDS011;6243;51.244;6.774;2023-12-04T14:11:59;8.83;;;6.43;;
12356;SDS011;6243;51.244;6.774;2023-12-04T14:14:24;8.97;;;6.87;;
12356;SDS011;6243;51.244;6.774;2023-12-04T14:16:50;7.23;;;6.20;;
12356;SDS011;6243;51.244;6.774;2023-12-04T14:19:17;10.70;;;6.60;;
12356;SDS011;6243;51.244;6.774;2023-12-04T14:21:42;7.90;;;6.30;;
12356;SDS011;6243;51.244;6.774;2023-12-04T14:24:08;8.30;;;6.57;;
12356;SDS011;6243;51.244;6.774;2023-12-04T14:26:33;8.43;;;6.03;;
12356;SDS011;6243;51.244;6.774;2023-12-04T14:28:59;8.30;;;6.33;;
12356;SDS011;6243;51.244;6.774;2023-12-04T14:31:24;7.50;;;5.37;;
12356;SDS011;6243;51.244;6.774;2023-12-04T14:33:50;8.40;;;6.67;;
12356;SDS011;6243;51.244;6.774;2023-12-04T14:36:17;9.03;;;5.63;;
12356;SDS011;6243;51.244;6.774;2023-12-04T14:38:42;8.53;;;5.87;;
12356;SDS011;6243;51.244;6.774;2023-12-04T14:41:08;7.37;;;5.90;;
12356;SDS011;6243;51.244;6.774;2023-12-04T14:43:33;7.83;;;5.63;;
12356;SDS011;6243;51.244;6.774;2023-12-04T14:45:59;7.33;;;6.00;;